sensor_id;sensor_type;location;lat;lon;timestamp;temperature;humidity
12438;DHT22;6283;51.330;12.374;2022-12-24T00:01:01;11.00;1.00
12438;DHT22;6283;51.330;12.374;2022-12-24T00:03:27;11.10;1.00
12438;DHT22;6283;51.330;12.374;2022-12-24T00:05:53;11.00;1.00
12438;DHT22;6283;51.330;12.374;2022-12-24T00:08:19;11.10;1.00
12438;DHT22;6283;51.330;12.374;2022-12-24T00:10:51;11.10;1.00
12438;DHT22;6283;51.330;12.374;2022-12-24T00:13:17;11.00;1.00
12438;DHT22;6283;51.330;12.374;2022-12-24T00:15:43;10.80;1.00
12438;DHT22;6283;51.330;12.374;2022-12-24T00:18:09;11.00;1.00
12438;DHT22;6283;51.330;12.374;2022-12-24T00:20:34;11.10;1.00
12438;DHT22;6283;51.330;12.374;2022-12-24T00:23:00;11.10;1.00
12438;DHT22;6283;51.330;12.374;2022-12-24T00:25:25;11.00;1.00
12438;DHT22;6283;51.330;12.374;2022-12-24T00:27:51;11.00;1.00
12438;DHT22;6283;51.330;12.374;2022-12-24T00:30:17;11.00;1.00
12438;DHT22;6283;51.330;12.374;2022-12-24T00:32:42;10.80;1.00
12438;DHT22;6283;51.330;12.374;2022-12-24T00:35:08;10.60;1.00
12438;DHT22;6283;51.330;12.374;2022-12-24T00:37:33;10.80;1.00
12438;DHT22;6283;51.330;12.374;2022-12-24T00:39:59;10.60;1.00
12438;DHT22;6283;51.330;12.374;2022-12-24T00:42:25;10.60;1.00
12438;DHT22;6283;51.330;12.374;2022-12-24T00:44:50;10.50;1.00
12438;DHT22;6283;51.330;12.374;2022-12-24T00:47:16;10.60;1.00
12438;DHT22;6283;51.330;12.374;2022-12-24T00:49:41;10.70;1.00
12438;DHT22;6283;51.330;12.374;2022-12-24T00:52:07;10.40;1.00
12438;DHT22;6283;51.330;12.374;2022-12-24T00:54:33;10.50;1.00
12438;DHT22;6283;51.330;12.374;2022-12-24T00:56:58;10.50;1.00
12438;DHT22;6283;51.330;12.374;2022-12-24T00:59:24;10.50;1.00
12438;DHT22;6283;51.330;12.374;2022-12-24T01:01:49;10.40;1.00
12438;DHT22;6283;51.330;12.374;2022-12-24T01:04:15;10.50;1.00
12438;DHT22;6283;51.330;12.374;2022-12-24T01:06:59;10.60;1.00
12438;DHT22;6283;51.330;12.374;2022-12-24T01:09:24;10.60;1.00
12438;DHT22;6283;51.330;12.374;2022-12-24T01:11:50;10.50;1.00
12438;DHT22;6283;51.330;12.374;2022-12-24T01:14:16;10.60;1.00
12438;DHT22;6283;51.330;12.374;2022-12-24T01:16:41;10.50;1.00
12438;DHT22;6283;51.330;12.374;2022-12-24T01:19:07;10.70;1.00
12438;DHT22;6283;51.330;12.374;2022-12-24T01:21:32;10.90;1.00
12438;DHT22;6283;51.330;12.374;2022-12-24T01:23:58;11.00;1.00
12438;DHT22;6283;51.330;12.374;2022-12-24T01:26:24;10.80;1.00
12438;DHT22;6283;51.330;12.374;2022-12-24T01:28:49;10.90;1.00
12438;DHT22;6283;51.330;12.374;2022-12-24T01:31:18;11.00;1.00
12438;DHT22;6283;51.330;12.374;2022-12-24T01:33:45;10.80;1.00
12438;DHT22;6283;51.330;12.374;2022-12-24T01:36:12;11.00;1.00
12438;DHT22;6283;51.330;12.374;2022-12-24T01:38:37;10.80;1.00
12438;DHT22;6283;51.330;12.374;2022-12-24T01:41:03;11.00;1.00
12438;DHT22;6283;51.330;12.374;2022-12-24T01:43:47;10.90;1.00
12438;DHT22;6283;51.330;12.374;2022-12-24T01:46:19;10.80;1.00
12438;DHT22;6283;51.330;12.374;2022-12-24T01:49:00;10.80;1.00
12438;DHT22;6283;51.330;12.374;2022-12-24T01:51:33;10.90;1.00
12438;DHT22;6283;51.330;12.374;2022-12-24T01:54:06;10.90;1.00
12438;DHT22;6283;51.330;12.374;2022-12-24T01:56:36;11.00;1.00
12438;DHT22;6283;51.330;12.374;2022-12-24T01:59:08;11.00;1.00
12438;DHT22;6283;51.330;12.374;2022-12-24T02:01:35;11.10;1.00
12438;DHT22;6283;51.330;12.374;2022-12-24T02:04:14;11.10;1.00
12438;DHT22;6283;51.330;12.374;2022-12-24T02:06:41;10.80;1.00
12438;DHT22;6283;51.330;12.374;2022-12-24T02:09:07;11.10;1.00
12438;DHT22;6283;51.330;12.374;2022-12-24T02:11:33;10.90;1.00
12438;DHT22;6283;51.330;12.374;2022-12-24T02:14:01;10.90;1.00
12438;DHT22;6283;51.330;12.374;2022-12-24T02:25:09;11.00;1.00
12438;DHT22;6283;51.330;12.374;2022-12-24T02:30:37;10.80;1.00
12438;DHT22;6283;51.330;12.374;2022-12-24T02:38:45;11.00;1.00
12438;DHT22;6283;51.330;12.374;2022-12-24T02:41:21;11.10;1.00
12438;DHT22;6283;51.330;12.374;2022-12-24T02:43:49;11.00;1.00
12438;DHT22;6283;51.330;12.374;2022-12-24T02:46:19;11.10;1.00
12438;DHT22;6283;51.330;12.374;2022-12-24T02:48:47;11.00;1.00
12438;DHT22;6283;51.330;12.374;2022-12-24T02:51:14;11.00;1.00
12438;DHT22;6283;51.330;12.374;2022-12-24T02:53:40;11.00;1.00
12438;DHT22;6283;51.330;12.374;2022-12-24T03:02:10;11.00;1.00
12438;DHT22;6283;51.330;12.374;2022-12-24T03:05:01;10.90;1.00
12438;DHT22;6283;51.330;12.374;2022-12-24T03:12:51;11.20;1.00
12438;DHT22;6283;51.330;12.374;2022-12-24T03:15:20;11.20;1.00
12438;DHT22;6283;51.330;12.374;2022-12-24T03:17:49;11.10;1.00
12438;DHT22;6283;51.330;12.374;2022-12-24T03:20:40;11.30;1.00
12438;DHT22;6283;51.330;12.374;2022-12-24T03:23:04;11.00;1.00
12438;DHT22;6283;51.330;12.374;2022-12-24T03:25:31;11.20;1.00
12438;DHT22;6283;51.330;12.374;2022-12-24T03:27:58;11.10;1.00
12438;DHT22;6283;51.330;12.374;2022-12-24T03:30:25;11.00;1.00
12438;DHT22;6283;51.330;12.374;2022-12-24T03:32:51;10.90;1.00
12438;DHT22;6283;51.330;12.374;2022-12-24T03:35:17;11.00;1.00
12438;DHT22;6283;51.330;12.374;2022-12-24T03:37:42;11.10;1.00
12438;DHT22;6283;51.330;12.374;2022-12-24T03:40:08;11.00;1.00
12438;DHT22;6283;51.330;12.374;2022-12-24T03:42:35;10.90;1.00
12438;DHT22;6283;51.330;12.374;2022-12-24T03:45:00;11.20;1.00
12438;DHT22;6283;51.330;12.374;2022-12-24T03:47:26;11.10;1.00
12438;DHT22;6283;51.330;12.374;2022-12-24T03:49:51;11.10;1.00
12438;DHT22;6283;51.330;12.374;2022-12-24T03:52:17;11.30;1.00
12438;DHT22;6283;51.330;12.374;2022-12-24T03:54:43;11.10;1.00
12438;DHT22;6283;51.330;12.374;2022-12-24T03:57:08;11.10;1.00
12438;DHT22;6283;51.330;12.374;2022-12-24T03:59:34;11.40;1.00
12438;DHT22;6283;51.330;12.374;2022-12-24T04:01:59;11.30;1.00
12438;DHT22;6283;51.330;12.374;2022-12-24T04:04:25;11.20;1.00
12438;DHT22;6283;51.330;12.374;2022-12-24T04:06:51;11.20;1.00
12438;DHT22;6283;51.330;12.374;2022-12-24T04:09:16;11.20;1.00
12438;DHT22;6283;51.330;12.374;2022-12-24T04:11:42;11.30;1.00
12438;DHT22;6283;51.330;12.374;2022-12-24T04:14:07;11.10;1.00
12438;DHT22;6283;51.330;12.374;2022-12-24T04:16:33;11.20;1.00
12438;DHT22;6283;51.330;12.374;2022-12-24T04:18:59;11.30;1.00
12438;DHT22;6283;51.330;12.374;2022-12-24T04:21:24;11.10;1.00
12438;DHT22;6283;51.330;12.374;2022-12-24T04:23:50;11.20;1.00
12438;DHT22;6283;51.330;12.374;2022-12-24T04:26:15;11.10;1.00
12438;DHT22;6283;51.330;12.374;2022-12-24T04:28:42;11.20;1.00
12438;DHT22;6283;51.330;12.374;2022-12-24T04:31:11;11.20;1.00
12438;DHT22;6283;51.330;12.374;2022-12-24T04:33:36;11.20;1.00
12438;DHT22;6283;51.330;12.374;2022-12-24T04:36:04;11.10;1.00
12438;DHT22;6283;51.330;12.374;2022-12-24T04:38:30;11.10;1.00
12438;DHT22;6283;51.330;12.374;2022-12-24T04:40:59;11.00;1.00
12438;DHT22;6283;51.330;12.374;2022-12-24T04:43:26;11.00;1.00
12438;DHT22;6283;51.330;12.374;2022-12-24T04:45:51;11.30;1.00
12438;DHT22;6283;51.330;12.374;2022-12-24T04:48:17;11.20;1.00
12438;DHT22;6283;51.330;12.374;2022-12-24T04:50:42;11.10;1.00
12438;DHT22;6283;51.330;12.374;2022-12-24T04:53:08;11.10;1.00
12438;DHT22;6283;51.330;12.374;2022-12-24T04:55:33;11.30;1.00
12438;DHT22;6283;51.330;12.374;2022-12-24T04:57:59;11.20;1.00
12438;DHT22;6283;51.330;12.374;2022-12-24T05:00:25;11.10;1.00
12438;DHT22;6283;51.330;12.374;2022-12-24T05:02:50;11.20;1.00
12438;DHT22;6283;51.330;12.374;2022-12-24T05:05:16;11.20;1.00
12438;DHT22;6283;51.330;12.374;2022-12-24T05:07:42;11.10;1.00
12438;DHT22;6283;51.330;12.374;2022-12-24T05:10:08;11.10;1.00
12438;DHT22;6283;51.330;12.374;2022-12-24T05:12:35;11.10;1.00
12438;DHT22;6283;51.330;12.374;2022-12-24T05:15:01;11.00;1.00
12438;DHT22;6283;51.330;12.374;2022-12-24T05:17:26;11.20;1.00
12438;DHT22;6283;51.330;12.374;2022-12-24T05:19:52;10.90;1.00
12438;DHT22;6283;51.330;12.374;2022-12-24T05:22:17;11.10;1.00
12438;DHT22;6283;51.330;12.374;2022-12-24T05:25:18;11.00;1.00
12438;DHT22;6283;51.330;12.374;2022-12-24T05:28:03;11.10;1.00
12438;DHT22;6283;51.330;12.374;2022-12-24T05:30:28;11.10;1.00
12438;DHT22;6283;51.330;12.374;2022-12-24T05:32:54;10.90;1.00
12438;DHT22;6283;51.330;12.374;2022-12-24T05:35:19;10.90;1.00
12438;DHT22;6283;51.330;12.374;2022-12-24T05:37:45;10.80;1.00
12438;DHT22;6283;51.330;12.374;2022-12-24T05:40:11;10.70;1.00
12438;DHT22;6283;51.330;12.374;2022-12-24T05:42:37;10.80;1.00
12438;DHT22;6283;51.330;12.374;2022-12-24T05:45:03;10.50;1.00
12438;DHT22;6283;51.330;12.374;2022-12-24T05:47:28;10.50;1.00
12438;DHT22;6283;51.330;12.374;2022-12-24T05:49:54;10.50;1.00
12438;DHT22;6283;51.330;12.374;2022-12-24T05:52:20;10.50;1.00
12438;DHT22;6283;51.330;12.374;2022-12-24T05:54:45;10.50;1.00
12438;DHT22;6283;51.330;12.374;2022-12-24T05:57:11;10.70;1.00
12438;DHT22;6283;51.330;12.374;2022-12-24T05:59:37;10.40;1.00
12438;DHT22;6283;51.330;12.374;2022-12-24T06:02:03;10.40;1.00
12438;DHT22;6283;51.330;12.374;2022-12-24T06:04:28;10.30;1.00
12438;DHT22;6283;51.330;12.374;2022-12-24T06:06:54;10.20;1.00
12438;DHT22;6283;51.330;12.374;2022-12-24T06:09:19;10.20;1.00
12438;DHT22;6283;51.330;12.374;2022-12-24T06:11:45;10.10;1.00
12438;DHT22;6283;51.330;12.374;2022-12-24T06:14:11;10.50;1.00
12438;DHT22;6283;51.330;12.374;2022-12-24T06:16:36;10.00;1.00
12438;DHT22;6283;51.330;12.374;2022-12-24T06:19:02;10.10;1.00
12438;DHT22;6283;51.330;12.374;2022-12-24T06:21:27;10.40;1.00
12438;DHT22;6283;51.330;12.374;2022-12-24T06:23:53;10.30;1.00
12438;DHT22;6283;51.330;12.374;2022-12-24T06:26:20;10.20;1.00
12438;DHT22;6283;51.330;12.374;2022-12-24T06:28:47;10.30;1.00
12438;DHT22;6283;51.330;12.374;2022-12-24T06:31:15;10.10;1.00
12438;DHT22;6283;51.330;12.374;2022-12-24T06:33:41;10.40;1.00
12438;DHT22;6283;51.330;12.374;2022-12-24T06:36:10;10.40;1.00
12438;DHT22;6283;51.330;12.374;2022-12-24T06:38:37;10.20;1.00
12438;DHT22;6283;51.330;12.374;2022-12-24T06:41:07;10.50;1.00
12438;DHT22;6283;51.330;12.374;2022-12-24T06:43:33;10.10;1.00
12438;DHT22;6283;51.330;12.374;2022-12-24T06:46:00;10.10;1.00
12438;DHT22;6283;51.330;12.374;2022-12-24T06:48:25;10.00;1.00
12438;DHT22;6283;51.330;12.374;2022-12-24T06:50:51;10.00;1.00
12438;DHT22;6283;51.330;12.374;2022-12-24T06:53:16;10.10;1.00
12438;DHT22;6283;51.330;12.374;2022-12-24T06:55:42;10.10;1.00
12438;DHT22;6283;51.330;12.374;2022-12-24T06:58:08;10.20;1.00
12438;DHT22;6283;51.330;12.374;2022-12-24T07:00:33;9.70;1.00
12438;DHT22;6283;51.330;12.374;2022-12-24T07:02:59;10.00;1.00
12438;DHT22;6283;51.330;12.374;2022-12-24T07:05:25;9.90;1.00
12438;DHT22;6283;51.330;12.374;2022-12-24T07:07:51;10.00;1.00
12438;DHT22;6283;51.330;12.374;2022-12-24T07:10:18;10.00;1.00
12438;DHT22;6283;51.330;12.374;2022-12-24T07:12:44;10.00;1.00
12438;DHT22;6283;51.330;12.374;2022-12-24T07:15:11;9.80;1.00
12438;DHT22;6283;51.330;12.374;2022-12-24T07:17:37;9.80;1.00
12438;DHT22;6283;51.330;12.374;2022-12-24T07:20:04;9.90;1.00
12438;DHT22;6283;51.330;12.374;2022-12-24T07:22:30;9.90;1.00
12438;DHT22;6283;51.330;12.374;2022-12-24T07:24:55;9.80;1.00
12438;DHT22;6283;51.330;12.374;2022-12-24T07:27:21;9.80;1.00
12438;DHT22;6283;51.330;12.374;2022-12-24T07:29:46;9.70;1.00
12438;DHT22;6283;51.330;12.374;2022-12-24T07:32:12;9.70;1.00
12438;DHT22;6283;51.330;12.374;2022-12-24T07:34:38;9.70;1.00
12438;DHT22;6283;51.330;12.374;2022-12-24T07:37:04;9.70;1.00
12438;DHT22;6283;51.330;12.374;2022-12-24T07:39:30;9.60;1.00
12438;DHT22;6283;51.330;12.374;2022-12-24T07:41:56;9.60;1.00
12438;DHT22;6283;51.330;12.374;2022-12-24T07:44:21;9.50;1.00
12438;DHT22;6283;51.330;12.374;2022-12-24T07:46:47;9.50;1.00
12438;DHT22;6283;51.330;12.374;2022-12-24T07:49:13;9.30;1.00
12438;DHT22;6283;51.330;12.374;2022-12-24T07:51:38;9.60;1.00
12438;DHT22;6283;51.330;12.374;2022-12-24T07:54:04;9.60;1.00
12438;DHT22;6283;51.330;12.374;2022-12-24T07:56:30;9.40;1.00
12438;DHT22;6283;51.330;12.374;2022-12-24T07:58:56;9.50;1.00
12438;DHT22;6283;51.330;12.374;2022-12-24T08:01:22;9.50;1.00
12438;DHT22;6283;51.330;12.374;2022-12-24T08:03:47;9.60;1.00
12438;DHT22;6283;51.330;12.374;2022-12-24T08:06:15;9.70;1.00
12438;DHT22;6283;51.330;12.374;2022-12-24T08:08:41;9.30;1.00
12438;DHT22;6283;51.330;12.374;2022-12-24T08:11:07;9.30;1.00
12438;DHT22;6283;51.330;12.374;2022-12-24T08:13:33;9.40;1.00
12438;DHT22;6283;51.330;12.374;2022-12-24T08:15:59;9.60;1.00
12438;DHT22;6283;51.330;12.374;2022-12-24T08:18:25;9.70;1.00
12438;DHT22;6283;51.330;12.374;2022-12-24T08:20:50;9.30;1.00
12438;DHT22;6283;51.330;12.374;2022-12-24T08:23:16;9.70;1.00
12438;DHT22;6283;51.330;12.374;2022-12-24T08:25:46;9.60;1.00
12438;DHT22;6283;51.330;12.374;2022-12-24T08:28:14;9.80;1.00
12438;DHT22;6283;51.330;12.374;2022-12-24T08:30:40;9.70;1.00
12438;DHT22;6283;51.330;12.374;2022-12-24T08:33:05;9.50;1.00
12438;DHT22;6283;51.330;12.374;2022-12-24T08:35:31;9.80;1.00
12438;DHT22;6283;51.330;12.374;2022-12-24T08:37:57;9.60;1.00
12438;DHT22;6283;51.330;12.374;2022-12-24T08:40:22;9.80;1.00
12438;DHT22;6283;51.330;12.374;2022-12-24T08:42:48;9.60;1.00
12438;DHT22;6283;51.330;12.374;2022-12-24T08:45:14;9.80;1.00
12438;DHT22;6283;51.330;12.374;2022-12-24T08:47:40;9.70;1.00
12438;DHT22;6283;51.330;12.374;2022-12-24T08:50:07;9.60;1.00
12438;DHT22;6283;51.330;12.374;2022-12-24T08:52:33;9.70;1.00
12438;DHT22;6283;51.330;12.374;2022-12-24T08:54:58;9.70;1.00
12438;DHT22;6283;51.330;12.374;2022-12-24T08:57:24;9.70;1.00
12438;DHT22;6283;51.330;12.374;2022-12-24T08:59:50;9.70;1.00
12438;DHT22;6283;51.330;12.374;2022-12-24T09:02:15;9.70;1.00
12438;DHT22;6283;51.330;12.374;2022-12-24T09:04:41;9.80;1.00
12438;DHT22;6283;51.330;12.374;2022-12-24T09:07:08;9.90;1.00
12438;DHT22;6283;51.330;12.374;2022-12-24T09:09:34;9.90;1.00
12438;DHT22;6283;51.330;12.374;2022-12-24T09:12:00;9.80;1.00
12438;DHT22;6283;51.330;12.374;2022-12-24T09:14:25;10.00;1.00
12438;DHT22;6283;51.330;12.374;2022-12-24T09:16:51;10.00;1.00
12438;DHT22;6283;51.330;12.374;2022-12-24T09:19:17;10.10;1.00
12438;DHT22;6283;51.330;12.374;2022-12-24T09:21:42;10.00;1.00
12438;DHT22;6283;51.330;12.374;2022-12-24T09:24:08;10.20;1.00
12438;DHT22;6283;51.330;12.374;2022-12-24T09:26:33;10.20;1.00
12438;DHT22;6283;51.330;12.374;2022-12-24T09:29:00;10.10;1.00
12438;DHT22;6283;51.330;12.374;2022-12-24T09:31:27;10.10;1.00
12438;DHT22;6283;51.330;12.374;2022-12-24T09:33:53;10.30;1.00
12438;DHT22;6283;51.330;12.374;2022-12-24T09:36:20;10.20;1.00
12438;DHT22;6283;51.330;12.374;2022-12-24T09:38:46;10.20;1.00
12438;DHT22;6283;51.330;12.374;2022-12-24T09:41:22;10.30;1.00
12438;DHT22;6283;51.330;12.374;2022-12-24T09:44:03;10.30;1.00
12438;DHT22;6283;51.330;12.374;2022-12-24T09:46:35;10.20;1.00
12438;DHT22;6283;51.330;12.374;2022-12-24T09:49:09;10.20;1.00
12438;DHT22;6283;51.330;12.374;2022-12-24T09:51:50;10.30;1.00
12438;DHT22;6283;51.330;12.374;2022-12-24T09:54:22;10.40;1.00
12438;DHT22;6283;51.330;12.374;2022-12-24T09:56:50;10.60;1.00
12438;DHT22;6283;51.330;12.374;2022-12-24T09:59:25;10.50;1.00
12438;DHT22;6283;51.330;12.374;2022-12-24T10:01:54;10.50;1.00
12438;DHT22;6283;51.330;12.374;2022-12-24T10:04:23;10.40;1.00
12438;DHT22;6283;51.330;12.374;2022-12-24T10:12:12;10.60;1.00
12438;DHT22;6283;51.330;12.374;2022-12-24T10:25:25;10.60;1.00
12438;DHT22;6283;51.330;12.374;2022-12-24T10:27:54;10.60;1.00
12438;DHT22;6283;51.330;12.374;2022-12-24T10:30:21;10.60;1.00
12438;DHT22;6283;51.330;12.374;2022-12-24T10:32:52;11.00;1.00
12438;DHT22;6283;51.330;12.374;2022-12-24T10:35:19;10.90;1.00
12438;DHT22;6283;51.330;12.374;2022-12-24T10:37:48;11.10;1.00
12438;DHT22;6283;51.330;12.374;2022-12-24T10:42:59;11.00;1.00
12438;DHT22;6283;51.330;12.374;2022-12-24T10:45:31;10.90;1.00
12438;DHT22;6283;51.330;12.374;2022-12-24T10:48:03;10.90;1.00
12438;DHT22;6283;51.330;12.374;2022-12-24T10:50:35;11.10;1.00
12438;DHT22;6283;51.330;12.374;2022-12-24T10:53:12;10.70;1.00
12438;DHT22;6283;51.330;12.374;2022-12-24T10:55:38;10.80;1.00
12438;DHT22;6283;51.330;12.374;2022-12-24T10:58:09;11.00;1.00
12438;DHT22;6283;51.330;12.374;2022-12-24T11:00:37;11.00;1.00
12438;DHT22;6283;51.330;12.374;2022-12-24T11:03:29;11.10;1.00
12438;DHT22;6283;51.330;12.374;2022-12-24T11:06:11;11.20;1.00
12438;DHT22;6283;51.330;12.374;2022-12-24T11:08:40;11.00;1.00
12438;DHT22;6283;51.330;12.374;2022-12-24T11:11:19;11.20;1.00
12438;DHT22;6283;51.330;12.374;2022-12-24T11:16:19;11.20;1.00
12438;DHT22;6283;51.330;12.374;2022-12-24T11:18:49;11.40;1.00
12438;DHT22;6283;51.330;12.374;2022-12-24T11:21:34;11.30;1.00
12438;DHT22;6283;51.330;12.374;2022-12-24T11:26:36;11.20;1.00
12438;DHT22;6283;51.330;12.374;2022-12-24T11:29:11;11.40;1.00
12438;DHT22;6283;51.330;12.374;2022-12-24T11:31:38;11.50;1.00
12438;DHT22;6283;51.330;12.374;2022-12-24T11:34:23;11.60;1.00
12438;DHT22;6283;51.330;12.374;2022-12-24T11:36:50;11.50;1.00
12438;DHT22;6283;51.330;12.374;2022-12-24T11:39:19;11.50;1.00
12438;DHT22;6283;51.330;12.374;2022-12-24T11:41:45;11.40;1.00
12438;DHT22;6283;51.330;12.374;2022-12-24T11:44:11;11.50;1.00
12438;DHT22;6283;51.330;12.374;2022-12-24T11:46:41;11.90;1.00
12438;DHT22;6283;51.330;12.374;2022-12-24T11:49:15;12.00;1.00
12438;DHT22;6283;51.330;12.374;2022-12-24T11:57:33;12.00;1.00
12438;DHT22;6283;51.330;12.374;2022-12-24T12:00:01;12.10;1.00
12438;DHT22;6283;51.330;12.374;2022-12-24T12:02:33;12.20;1.00
12438;DHT22;6283;51.330;12.374;2022-12-24T12:05:07;12.00;1.00
12438;DHT22;6283;51.330;12.374;2022-12-24T12:07:36;11.90;1.00
12438;DHT22;6283;51.330;12.374;2022-12-24T12:10:04;11.90;1.00
12438;DHT22;6283;51.330;12.374;2022-12-24T12:12:40;12.00;1.00
12438;DHT22;6283;51.330;12.374;2022-12-24T12:15:16;11.90;1.00
12438;DHT22;6283;51.330;12.374;2022-12-24T12:18:02;11.90;1.00
12438;DHT22;6283;51.330;12.374;2022-12-24T12:20:35;12.10;1.00
12438;DHT22;6283;51.330;12.374;2022-12-24T12:28:39;11.90;1.00
12438;DHT22;6283;51.330;12.374;2022-12-24T12:33:39;12.10;1.00
12438;DHT22;6283;51.330;12.374;2022-12-24T12:36:09;12.40;1.00
12438;DHT22;6283;51.330;12.374;2022-12-24T12:38:35;12.30;1.00
12438;DHT22;6283;51.330;12.374;2022-12-24T12:41:17;12.30;1.00
12438;DHT22;6283;51.330;12.374;2022-12-24T12:54:55;12.10;1.00
12438;DHT22;6283;51.330;12.374;2022-12-24T12:57:27;12.30;1.00
12438;DHT22;6283;51.330;12.374;2022-12-24T13:00:08;12.00;1.00
12438;DHT22;6283;51.330;12.374;2022-12-24T13:02:39;12.00;1.00
12438;DHT22;6283;51.330;12.374;2022-12-24T13:18:49;12.00;1.00
12438;DHT22;6283;51.330;12.374;2022-12-24T13:21:21;11.80;1.00
12438;DHT22;6283;51.330;12.374;2022-12-24T13:23:48;11.90;1.00
12438;DHT22;6283;51.330;12.374;2022-12-24T13:26:14;11.70;1.00
12438;DHT22;6283;51.330;12.374;2022-12-24T13:28:40;11.30;1.00
12438;DHT22;6283;51.330;12.374;2022-12-24T13:36:11;10.80;1.00
12438;DHT22;6283;51.330;12.374;2022-12-24T13:38:50;10.90;1.00
12438;DHT22;6283;51.330;12.374;2022-12-24T13:47:15;10.60;1.00
12438;DHT22;6283;51.330;12.374;2022-12-24T13:49:45;10.50;1.00
12438;DHT22;6283;51.330;12.374;2022-12-24T13:52:15;10.30;1.00
12438;DHT22;6283;51.330;12.374;2022-12-24T13:57:35;10.40;1.00
12438;DHT22;6283;51.330;12.374;2022-12-24T14:02:53;10.70;1.00
12438;DHT22;6283;51.330;12.374;2022-12-24T14:08:32;10.50;1.00
12438;DHT22;6283;51.330;12.374;2022-12-24T14:16:29;10.70;1.00
12438;DHT22;6283;51.330;12.374;2022-12-24T14:19:02;11.00;1.00
12438;DHT22;6283;51.330;12.374;2022-12-24T14:21:34;10.80;1.00
12438;DHT22;6283;51.330;12.374;2022-12-24T14:26:53;10.90;1.00
12438;DHT22;6283;51.330;12.374;2022-12-24T14:31:57;10.60;1.00
12438;DHT22;6283;51.330;12.374;2022-12-24T14:34:24;11.10;1.00
12438;DHT22;6283;51.330;12.374;2022-12-24T14:36:52;11.00;1.00
12438;DHT22;6283;51.330;12.374;2022-12-24T14:44:40;11.20;1.00
12438;DHT22;6283;51.330;12.374;2022-12-24T14:53:06;11.20;1.00
12438;DHT22;6283;51.330;12.374;2022-12-24T14:55:44;11.00;1.00
12438;DHT22;6283;51.330;12.374;2022-12-24T14:58:32;11.10;1.00
12438;DHT22;6283;51.330;12.374;2022-12-24T15:01:28;11.00;1.00
12438;DHT22;6283;51.330;12.374;2022-12-24T15:06:26;11.20;1.00
12438;DHT22;6283;51.330;12.374;2022-12-24T15:08:52;11.10;1.00
12438;DHT22;6283;51.330;12.374;2022-12-24T15:11:21;10.90;1.00
12438;DHT22;6283;51.330;12.374;2022-12-24T15:13:49;11.10;1.00
12438;DHT22;6283;51.330;12.374;2022-12-24T15:16:27;10.80;1.00
12438;DHT22;6283;51.330;12.374;2022-12-24T15:19:01;10.80;1.00
12438;DHT22;6283;51.330;12.374;2022-12-24T15:21:35;10.80;1.00
12438;DHT22;6283;51.330;12.374;2022-12-24T15:24:02;10.80;1.00
12438;DHT22;6283;51.330;12.374;2022-12-24T15:26:33;10.80;1.00
12438;DHT22;6283;51.330;12.374;2022-12-24T15:29:22;10.60;1.00
12438;DHT22;6283;51.330;12.374;2022-12-24T15:31:55;10.80;1.00
12438;DHT22;6283;51.330;12.374;2022-12-24T15:34:36;10.70;1.00
12438;DHT22;6283;51.330;12.374;2022-12-24T15:37:28;10.70;1.00
12438;DHT22;6283;51.330;12.374;2022-12-24T15:40:18;10.90;1.00
12438;DHT22;6283;51.330;12.374;2022-12-24T15:42:44;10.80;1.00
12438;DHT22;6283;51.330;12.374;2022-12-24T15:45:28;10.50;1.00
12438;DHT22;6283;51.330;12.374;2022-12-24T15:47:56;10.40;1.00
12438;DHT22;6283;51.330;12.374;2022-12-24T15:50:30;10.40;1.00
12438;DHT22;6283;51.330;12.374;2022-12-24T15:53:03;10.70;1.00
12438;DHT22;6283;51.330;12.374;2022-12-24T15:55:41;10.50;1.00
12438;DHT22;6283;51.330;12.374;2022-12-24T15:58:21;10.60;1.00
12438;DHT22;6283;51.330;12.374;2022-12-24T16:03:53;10.20;1.00
12438;DHT22;6283;51.330;12.374;2022-12-24T16:06:20;10.30;1.00
12438;DHT22;6283;51.330;12.374;2022-12-24T16:08:47;10.20;1.00
12438;DHT22;6283;51.330;12.374;2022-12-24T16:16:18;10.20;1.00
12438;DHT22;6283;51.330;12.374;2022-12-24T16:21:27;10.10;1.00
12438;DHT22;6283;51.330;12.374;2022-12-24T16:23:56;9.90;1.00
12438;DHT22;6283;51.330;12.374;2022-12-24T16:26:22;10.10;1.00
12438;DHT22;6283;51.330;12.374;2022-12-24T16:28:48;9.90;1.00
12438;DHT22;6283;51.330;12.374;2022-12-24T16:31:19;9.70;1.00
12438;DHT22;6283;51.330;12.374;2022-12-24T16:33:53;9.60;1.00
12438;DHT22;6283;51.330;12.374;2022-12-24T16:36:20;9.50;1.00
12438;DHT22;6283;51.330;12.374;2022-12-24T16:38:45;9.70;1.00
12438;DHT22;6283;51.330;12.374;2022-12-24T16:41:29;9.70;1.00
12438;DHT22;6283;51.330;12.374;2022-12-24T16:44:15;9.30;1.00
12438;DHT22;6283;51.330;12.374;2022-12-24T16:46:40;9.60;1.00
12438;DHT22;6283;51.330;12.374;2022-12-24T16:49:12;9.30;1.00
12438;DHT22;6283;51.330;12.374;2022-12-24T16:51:40;9.50;1.00
12438;DHT22;6283;51.330;12.374;2022-12-24T16:54:06;9.50;1.00
12438;DHT22;6283;51.330;12.374;2022-12-24T16:56:32;9.20;1.00
12438;DHT22;6283;51.330;12.374;2022-12-24T16:58:57;9.40;1.00
12438;DHT22;6283;51.330;12.374;2022-12-24T17:01:23;9.10;1.00
12438;DHT22;6283;51.330;12.374;2022-12-24T17:03:49;9.20;1.00
12438;DHT22;6283;51.330;12.374;2022-12-24T17:06:14;9.10;1.00
12438;DHT22;6283;51.330;12.374;2022-12-24T17:08:40;9.20;1.00
12438;DHT22;6283;51.330;12.374;2022-12-24T17:11:06;9.00;1.00
12438;DHT22;6283;51.330;12.374;2022-12-24T17:13:32;9.10;1.00
12438;DHT22;6283;51.330;12.374;2022-12-24T17:16:00;9.10;1.00
12438;DHT22;6283;51.330;12.374;2022-12-24T17:18:26;9.10;1.00
12438;DHT22;6283;51.330;12.374;2022-12-24T17:20:58;9.10;1.00
12438;DHT22;6283;51.330;12.374;2022-12-24T17:23:25;8.70;1.00
12438;DHT22;6283;51.330;12.374;2022-12-24T17:25:51;8.80;1.00
12438;DHT22;6283;51.330;12.374;2022-12-24T17:28:16;8.70;1.00
12438;DHT22;6283;51.330;12.374;2022-12-24T17:30:42;8.80;1.00
12438;DHT22;6283;51.330;12.374;2022-12-24T17:33:07;8.80;1.00
12438;DHT22;6283;51.330;12.374;2022-12-24T17:35:33;9.00;1.00
12438;DHT22;6283;51.330;12.374;2022-12-24T17:37:58;8.70;1.00
12438;DHT22;6283;51.330;12.374;2022-12-24T17:40:28;8.60;1.00
12438;DHT22;6283;51.330;12.374;2022-12-24T17:42:54;8.80;1.00
12438;DHT22;6283;51.330;12.374;2022-12-24T17:45:19;8.70;1.00
12438;DHT22;6283;51.330;12.374;2022-12-24T17:47:45;8.70;1.00
12438;DHT22;6283;51.330;12.374;2022-12-24T17:50:11;8.80;1.00
12438;DHT22;6283;51.330;12.374;2022-12-24T17:52:36;8.60;1.00
12438;DHT22;6283;51.330;12.374;2022-12-24T17:55:02;8.60;1.00
12438;DHT22;6283;51.330;12.374;2022-12-24T17:57:28;8.80;1.00
12438;DHT22;6283;51.330;12.374;2022-12-24T17:59:54;8.60;1.00
12438;DHT22;6283;51.330;12.374;2022-12-24T18:02:19;8.80;1.00
12438;DHT22;6283;51.330;12.374;2022-12-24T18:04:45;8.70;1.00
12438;DHT22;6283;51.330;12.374;2022-12-24T18:07:10;8.70;1.00
12438;DHT22;6283;51.330;12.374;2022-12-24T18:09:36;8.60;1.00
12438;DHT22;6283;51.330;12.374;2022-12-24T18:12:02;8.90;1.00
12438;DHT22;6283;51.330;12.374;2022-12-24T18:14:28;8.60;1.00
12438;DHT22;6283;51.330;12.374;2022-12-24T18:16:54;8.70;1.00
12438;DHT22;6283;51.330;12.374;2022-12-24T18:19:19;8.60;1.00
12438;DHT22;6283;51.330;12.374;2022-12-24T18:21:45;8.50;1.00
12438;DHT22;6283;51.330;12.374;2022-12-24T18:24:11;8.50;1.00